Isaar, Wisconsin
Current Conditions -  °F | °C
As of 2:53 AM on Friday 31 Oct 2014 (Local Time) from KGRB Reporting Station
Light Rain Light Rain  
Wind Chill: 29°   Ceiling: 3600
Heat Index: 38°   Visibility: 10mi
Dew Point: 32°   Wind: 16mph
Humidity: 79%   Direction: 320°NW
Pressure: 30.05"   Gusts: NA
Location:  44.5116°N, 88.3076°W
Report Text: KGRB 310753Z AUTO 32014KT 10SM -RA OVC036 03/00 A3005 RMK AO2 RAB01 SLP183 P0000 T00330000 $
Loading
Personal Weather Stations






























Interactive Weather Map
Tropical Storm Tracking
New forecast layout! Learn more

10-Day Weather Forecast

Advertisements
Track Severe Weather on mobile